Time;durP1;ratioP1;P1;durP2;ratioP2;P2;SDS_P1;SDS_P2;PMS_P1;PMS_P2;Temp;Humidity;BMP_temperature;BMP_pressure;BME280_temperature;BME280_humidity;BME280_pressure;Samples;Min_cycle;Max_cycle;Signal;HPM_P1;HPM_P2
2021/12/17 00:01:08;;;;;;;19.07;15.70;;;9.10;72.60;;;-142.21;100.00;112049.66;5012961;28;20488;-75
2021/12/17 00:03:44;;;;;;;16.33;14.57;;;9.10;72.60;;;-142.21;100.00;112049.66;5008073;28;20442;-76
2021/12/17 00:06:30;;;;;;;17.37;13.83;;;9.10;72.60;;;-142.21;100.00;112049.66;4994611;28;20473;-76
2021/12/17 00:08:59;;;;;;;17.50;13.23;;;9.20;72.70;;;-142.21;100.00;112049.66;5010172;28;20538;-77
2021/12/17 00:11:27;;;;;;;18.93;14.97;;;9.20;72.70;;;-142.21;100.00;112049.66;5014770;28;20441;-77
2021/12/17 00:13:56;;;;;;;18.73;14.80;;;9.20;72.70;;;-142.21;100.00;112049.66;5013232;28;20956;-76
2021/12/17 00:16:30;;;;;;;18.83;15.43;;;9.30;72.80;;;-142.21;100.00;112049.66;5014070;28;20833;-77
2021/12/17 00:19:14;;;;;;;17.47;14.93;;;9.30;72.80;;;-142.21;100.00;112049.66;5014058;28;20445;-77
2021/12/17 00:49:42;;;;;;;15.07;12.83;;;9.60;72.90;;;-142.21;100.00;112049.66;4993676;28;20406;-76
2021/12/17 00:52:11;;;;;;;18.57;15.43;;;9.60;73.10;;;-142.21;100.00;112049.66;5000895;28;20486;-75
2021/12/17 00:54:42;;;;;;;17.30;14.37;;;9.60;73.10;;;-142.21;100.00;112049.66;5013631;28;20956;-77
2021/12/17 00:57:17;;;;;;;18.97;15.67;;;9.60;73.10;;;-142.21;100.00;112049.66;5009634;28;20501;-75
2021/12/17 00:59:49;;;;;;;16.10;13.83;;;9.70;73.20;;;-142.21;100.00;112049.66;5008951;28;20524;-77
2021/12/17 01:02:22;;;;;;;16.10;13.80;;;9.70;73.20;;;-142.21;100.00;112049.66;5003148;28;20447;-76
2021/12/17 01:04:54;;;;;;;14.73;12.60;;;9.70;73.20;;;-142.21;100.00;112049.66;5004075;28;20464;-77
2021/12/17 01:07:29;;;;;;;16.83;14.50;;;9.80;73.30;;;-142.21;100.00;112049.66;5003203;28;20802;-75
2021/12/17 01:09:57;;;;;;;17.17;13.90;;;9.80;73.30;;;-142.21;100.00;112049.66;4999685;28;20899;-76
2021/12/17 01:12:26;;;;;;;16.53;14.37;;;9.80;74.00;;;-142.21;100.00;112049.66;4994079;28;20458;-75
2021/12/17 01:14:55;;;;;;;14.63;13.13;;;9.80;73.30;;;-142.21;100.00;112049.66;5013015;28;20461;-76
2021/12/17 01:17:27;;;;;;;15.03;13.53;;;9.70;73.20;;;-142.21;100.00;112049.66;5011172;28;20445;-76
2021/12/17 01:20:18;;;;;;;17.90;14.17;;;9.70;73.20;;;-142.21;100.00;112049.66;5013214;28;20478;-75
2021/12/17 01:23:00;;;;;;;16.10;14.20;;;9.80;73.30;;;-142.21;100.00;112049.66;5012254;28;20949;-76
2021/12/17 01:25:53;;;;;;;16.53;13.33;;;9.80;73.30;;;-142.21;100.00;112049.66;4992667;28;20550;-76
2021/12/17 01:36:35;;;;;;;18.03;13.93;;;9.80;73.30;;;-142.21;100.00;112049.66;4999309;28;20476;-74
2021/12/17 01:42:05;;;;;;;16.57;13.30;;;9.90;73.40;;;-142.21;100.00;112049.66;5013712;28;20468;-76
2021/12/17 01:44:35;;;;;;;15.43;13.07;;;9.90;73.40;;;-142.21;100.00;112049.66;5016452;28;20461;-77
2021/12/17 01:47:04;;;;;;;13.93;12.43;;;9.80;73.30;;;-142.21;100.00;112049.66;5014931;28;20442;-75
2021/12/17 02:00:51;;;;;;;17.77;13.93;;;9.80;72.90;;;-142.21;100.00;112049.66;5014160;28;20967;-77
2021/12/17 02:03:18;;;;;;;17.73;13.53;;;9.70;73.00;;;-142.21;100.00;112049.66;4995605;28;20525;-77
2021/12/17 02:05:46;;;;;;;14.33;12.33;;;9.60;73.20;;;-142.21;100.00;112049.66;4994802;28;20457;-75
2021/12/17 02:08:13;;;;;;;14.83;13.20;;;9.70;73.70;;;-142.21;100.00;112049.66;4994976;28;20458;-76
2021/12/17 02:11:35;;;;;;;15.70;11.97;;;9.70;73.60;;;-142.21;100.00;112049.66;4991213;28;20867;-76
2021/12/17 02:19:46;;;;;;;14.10;12.57;;;10.00;72.40;;;-142.21;100.00;112049.66;5014877;28;20414;-76
2021/12/17 02:33:12;;;;;;;14.27;12.43;;;10.10;72.30;;;-142.21;100.00;112049.66;4987707;28;20947;-77
2021/12/17 02:35:43;;;;;;;14.93;12.70;;;10.10;72.30;;;-142.21;100.00;112049.66;4994975;28;20482;-77
2021/12/17 02:38:13;;;;;;;17.33;13.40;;;10.00;72.30;;;-142.21;100.00;112049.66;4995400;28;20526;-76
2021/12/17 02:46:10;;;;;;;15.00;12.63;;;9.90;73.90;;;-142.21;100.00;112049.66;5013130;28;20442;-74
2021/12/17 02:48:42;;;;;;;15.13;13.43;;;9.90;73.90;;;-142.21;100.00;112049.66;5013937;28;20937;-76
2021/12/17 02:51:09;;;;;;;15.70;13.17;;;9.90;74.10;;;-142.21;100.00;112049.66;5007315;28;20553;-76
2021/12/17 02:53:38;;;;;;;15.23;13.53;;;10.00;72.80;;;-142.21;100.00;112049.66;4994479;28;20451;-76
2021/12/17 02:56:08;;;;;;;15.73;12.90;;;10.00;72.50;;;-142.21;100.00;112049.66;4995184;28;20442;-75
2021/12/17 02:58:38;;;;;;;16.33;13.10;;;10.00;72.40;;;-142.21;100.00;112049.66;4994649;28;20530;-76
2021/12/17 03:01:11;;;;;;;14.70;13.10;;;10.10;72.50;;;-142.21;100.00;112049.66;5009627;28;20836;-76
2021/12/17 03:03:40;;;;;;;14.90;13.40;;;10.00;72.40;;;-142.21;100.00;112049.66;5013964;28;20534;-77
2021/12/17 03:06:09;;;;;;;15.00;13.03;;;9.90;73.40;;;-142.21;100.00;112049.66;5014426;28;20471;-74
2021/12/17 03:08:38;;;;;;;14.10;12.60;;;10.00;72.50;;;-142.21;100.00;112049.66;5014370;28;20950;-77
2021/12/17 03:11:05;;;;;;;15.53;12.37;;;10.00;72.40;;;-142.21;100.00;112049.66;5005286;28;20451;-75
2021/12/17 03:13:34;;;;;;;14.00;12.50;;;9.90;73.40;;;-142.21;100.00;112049.66;4994919;28;20550;-76
2021/12/17 03:16:07;;;;;;;16.80;13.43;;;9.80;73.80;;;-142.21;100.00;112049.66;4996983;28;20805;-76
2021/12/17 03:24:08;;;;;;;13.33;11.90;;;9.80;74.20;;;-142.21;100.00;112049.66;5011841;28;20979;-76
2021/12/17 03:26:36;;;;;;;14.40;12.40;;;9.80;74.40;;;-142.21;100.00;112049.66;5014182;28;21008;-77
2021/12/17 03:29:07;;;;;;;15.70;13.07;;;9.90;74.20;;;-142.21;100.00;112049.66;5001812;28;20471;-77
2021/12/17 03:31:35;;;;;;;14.40;11.80;;;10.00;72.70;;;-142.21;100.00;112049.66;4994697;28;20442;-76
2021/12/17 03:34:16;;;;;;;15.77;13.00;;;10.10;72.60;;;-142.21;100.00;112049.66;5003939;28;20551;-76
2021/12/17 03:36:43;;;;;;;15.43;12.80;;;10.10;72.50;;;-142.21;100.00;112049.66;4998959;28;20447;-76
2021/12/17 03:39:12;;;;;;;15.10;12.23;;;10.10;72.40;;;-142.21;100.00;112049.66;5009643;28;20817;-77
2021/12/17 03:41:40;;;;;;;15.47;12.97;;;10.20;72.50;;;-142.21;100.00;112049.66;4994030;28;20842;-76
2021/12/17 03:44:10;;;;;;;15.23;12.87;;;10.20;72.40;;;-142.21;100.00;112049.66;5003408;28;20443;-76
2021/12/17 03:46:37;;;;;;;13.97;12.50;;;10.30;72.40;;;-142.21;100.00;112049.66;4999868;28;20436;-77
2021/12/17 03:49:04;;;;;;;14.17;11.37;;;10.30;72.30;;;-142.21;100.00;112049.66;5010442;28;20533;-75
2021/12/17 03:51:36;;;;;;;13.23;11.87;;;10.30;72.20;;;-142.21;100.00;112049.66;4981789;28;20466;-76
2021/12/17 03:54:04;;;;;;;14.20;12.13;;;10.30;72.20;;;-142.21;100.00;112049.66;4985968;28;20792;-77
2021/12/17 03:56:32;;;;;;;13.23;11.80;;;10.30;72.10;;;-142.21;100.00;112049.66;4993592;28;20446;-76
2021/12/17 03:58:59;;;;;;;17.20;13.13;;;10.30;72.00;;;-142.21;100.00;112049.66;5010811;28;20451;-76
2021/12/17 04:01:27;;;;;;;15.50;13.77;;;10.40;72.10;;;-142.21;100.00;112049.66;5000329;28;20497;-75
2021/12/17 04:03:54;;;;;;;12.20;10.87;;;10.30;72.00;;;-142.21;100.00;112049.66;4993915;28;20462;-76
2021/12/17 04:06:22;;;;;;;13.87;12.23;;;10.30;72.30;;;-142.21;100.00;112049.66;4995102;28;20458;-76
2021/12/17 04:08:49;;;;;;;14.57;11.90;;;10.30;72.30;;;-142.21;100.00;112049.66;4999977;28;20532;-76
2021/12/17 04:11:19;;;;;;;15.53;12.63;;;10.30;72.30;;;-142.21;100.00;112049.66;4995786;28;20517;-77
2021/12/17 04:13:53;;;;;;;14.50;12.07;;;10.40;72.30;;;-142.21;100.00;112049.66;5013097;28;20473;-75
2021/12/17 04:16:25;;;;;;;15.17;12.70;;;10.40;72.20;;;-142.21;100.00;112049.66;5012505;28;21020;-76
2021/12/17 04:18:52;;;;;;;14.37;12.80;;;10.40;72.20;;;-142.21;100.00;112049.66;4995611;28;20473;-75
2021/12/17 04:21:20;;;;;;;13.20;11.37;;;10.40;72.20;;;-142.21;100.00;112049.66;5013108;28;20576;-77
2021/12/17 04:23:50;;;;;;;14.07;12.57;;;10.40;72.30;;;-142.21;100.00;112049.66;5004204;28;20531;-77
2021/12/17 04:26:18;;;;;;;13.60;12.03;;;10.50;72.30;;;-142.21;100.00;112049.66;4993947;28;20475;-76
2021/12/17 04:28:50;;;;;;;15.10;12.37;;;10.50;72.20;;;-142.21;100.00;112049.66;5005936;28;20462;-75
2021/12/17 04:31:23;;;;;;;14.33;12.27;;;10.50;71.90;;;-142.21;100.00;112049.66;5013148;28;20442;-77
2021/12/17 04:33:51;;;;;;;15.27;12.60;;;10.50;71.90;;;-142.21;100.00;112049.66;5012237;28;20461;-76
2021/12/17 04:36:23;;;;;;;15.87;13.20;;;10.50;71.80;;;-142.21;100.00;112049.66;5013305;28;20442;-76
2021/12/17 04:38:51;;;;;;;15.13;13.23;;;10.50;72.20;;;-142.21;100.00;112049.66;5010123;28;20454;-78
2021/12/17 04:44:10;;;;;;;13.87;12.23;;;10.50;71.80;;;-142.21;100.00;112049.66;4992720;28;20410;-76
2021/12/17 04:46:42;;;;;;;15.53;12.97;;;10.60;72.10;;;-142.21;100.00;112049.66;5002177;28;20452;-76
2021/12/17 04:57:29;;;;;;;14.93;12.70;;;10.60;71.80;;;-142.21;100.00;112049.66;4995509;28;20477;-76
2021/12/17 05:00:04;;;;;;;14.90;13.27;;;10.60;71.70;;;-142.21;100.00;112049.66;4993346;28;20463;-77
2021/12/17 05:02:36;;;;;;;12.87;11.57;;;10.60;71.70;;;-142.21;100.00;112049.66;4993059;28;20471;-77
2021/12/17 05:05:07;;;;;;;14.93;12.30;;;10.70;71.90;;;-142.21;100.00;112049.66;5002991;28;20816;-75
2021/12/17 05:07:35;;;;;;;13.83;12.40;;;10.70;71.60;;;-142.21;100.00;112049.66;5016437;28;20443;-77
2021/12/17 05:10:14;;;;;;;17.40;13.27;;;10.70;71.60;;;-142.21;100.00;112049.66;4988333;28;20513;-78
2021/12/17 05:18:17;;;;;;;14.83;12.90;;;10.70;71.80;;;-142.21;100.00;112049.66;4997320;28;20481;-75
2021/12/17 05:20:48;;;;;;;13.97;12.47;;;10.70;71.90;;;-142.21;100.00;112049.66;5011492;28;20470;-75
2021/12/17 05:23:15;;;;;;;17.00;13.50;;;10.70;71.90;;;-142.21;100.00;112049.66;5010283;28;20443;-76
2021/12/17 05:25:42;;;;;;;16.80;13.93;;;10.70;71.90;;;-142.21;100.00;112049.66;5015163;28;20452;-77
2021/12/17 05:28:10;;;;;;;16.33;13.70;;;10.70;72.70;;;-142.21;100.00;112049.66;5001237;28;20447;-76
2021/12/17 05:30:40;;;;;;;14.23;12.47;;;10.80;72.00;;;-142.21;100.00;112049.66;5008473;28;20457;-75
2021/12/17 05:33:07;;;;;;;13.40;12.03;;;10.70;71.90;;;-142.21;100.00;112049.66;4990371;28;20457;-76
2021/12/17 05:35:34;;;;;;;14.17;12.60;;;10.70;71.80;;;-142.21;100.00;112049.66;4996205;28;20442;-78
2021/12/17 05:38:02;;;;;;;16.70;14.90;;;10.80;71.90;;;-142.21;100.00;112049.66;4996712;28;20455;-77
2021/12/17 05:40:29;;;;;;;15.57;13.27;;;10.80;71.90;;;-142.21;100.00;112049.66;4996262;28;20455;-75
2021/12/17 05:43:00;;;;;;;14.00;12.60;;;10.80;72.00;;;-142.21;100.00;112049.66;4995589;28;20614;-75
2021/12/17 05:45:35;;;;;;;16.73;13.97;;;10.70;71.90;;;-142.21;100.00;112049.66;4979530;28;20435;-75
2021/12/17 05:48:08;;;;;;;15.27;13.27;;;10.70;72.10;;;-142.21;100.00;112049.66;5010661;28;20450;-76
2021/12/17 05:50:40;;;;;;;14.73;12.87;;;10.70;72.20;;;-142.21;100.00;112049.66;5013958;28;20442;-77
2021/12/17 05:53:09;;;;;;;14.97;12.97;;;10.70;72.30;;;-142.21;100.00;112049.66;4996210;28;20787;-76
2021/12/17 05:55:38;;;;;;;13.70;12.33;;;10.70;72.10;;;-142.21;100.00;112049.66;4996227;28;20454;-75
2021/12/17 05:58:06;;;;;;;17.57;13.20;;;10.70;72.30;;;-142.21;100.00;112049.66;4996309;28;20469;-75
2021/12/17 06:00:35;;;;;;;15.20;13.60;;;10.70;72.30;;;-142.21;100.00;112049.66;4997779;28;20545;-76
2021/12/17 06:03:04;;;;;;;15.67;13.03;;;10.70;72.30;;;-142.21;100.00;112049.66;5015127;28;20485;-76
2021/12/17 06:05:32;;;;;;;13.70;12.30;;;10.70;72.20;;;-142.21;100.00;112049.66;4992794;28;20674;-75
2021/12/17 06:07:59;;;;;;;16.23;13.10;;;10.70;72.30;;;-142.21;100.00;112049.66;5007983;28;20453;-76
2021/12/17 06:10:27;;;;;;;15.50;13.80;;;10.70;72.20;;;-142.21;100.00;112049.66;5015305;28;20458;-75
2021/12/17 06:12:55;;;;;;;13.27;11.70;;;10.70;72.30;;;-142.21;100.00;112049.66;5015444;28;20474;-77
2021/12/17 06:15:23;;;;;;;14.33;12.47;;;10.60;72.30;;;-142.21;100.00;112049.66;5014148;28;20450;-78
2021/12/17 06:17:52;;;;;;;14.10;12.60;;;10.70;72.60;;;-142.21;100.00;112049.66;5014546;28;20511;-75
2021/12/17 06:20:24;;;;;;;15.77;14.17;;;10.70;72.50;;;-142.21;100.00;112049.66;5014783;28;20446;-75
2021/12/17 06:22:52;;;;;;;14.67;12.97;;;10.70;72.60;;;-142.21;100.00;112049.66;4995887;28;20499;-75
2021/12/17 06:25:20;;;;;;;16.13;14.33;;;10.70;72.60;;;-142.21;100.00;112049.66;4994844;28;20451;-75
2021/12/17 06:27:47;;;;;;;16.67;14.57;;;10.70;72.70;;;-142.21;100.00;112049.66;4999249;28;20449;-75
2021/12/17 06:30:19;;;;;;;16.77;14.30;;;10.70;72.50;;;-142.21;100.00;112049.66;5007583;28;20534;-76
2021/12/17 06:32:47;;;;;;;14.73;13.23;;;10.70;72.60;;;-142.21;100.00;112049.66;5013963;28;20797;-75
2021/12/17 06:35:14;;;;;;;16.13;14.43;;;10.70;72.50;;;-142.21;100.00;112049.66;5009251;28;20455;-76
2021/12/17 06:37:44;;;;;;;16.40;13.90;;;10.70;72.50;;;-142.21;100.00;112049.66;4995155;28;20447;-77
2021/12/17 06:40:12;;;;;;;14.33;12.70;;;10.80;72.60;;;-142.21;100.00;112049.66;5008590;28;20454;-76
2021/12/17 06:42:40;;;;;;;16.80;13.77;;;10.80;72.50;;;-142.21;100.00;112049.66;5007656;28;21025;-76
2021/12/17 06:45:18;;;;;;;15.13;12.70;;;10.70;72.40;;;-142.21;100.00;112049.66;5009620;28;20505;-76
2021/12/17 06:47:53;;;;;;;14.73;13.17;;;10.70;72.60;;;-142.21;100.00;112049.66;4981259;28;20435;-77
2021/12/17 06:59:01;;;;;;;12.77;11.47;;;10.80;72.40;;;-142.21;100.00;112049.66;4991796;28;20438;-75
2021/12/17 07:18:42;;;;;;;10.07;9.00;;;10.70;71.50;;;-142.21;100.00;112049.66;4991911;28;20449;-76
2021/12/17 07:35:24;;;;;;;9.03;8.13;;;10.70;71.00;;;-142.21;100.00;112049.66;5006405;28;20807;-77
2021/12/17 07:40:37;;;;;;;11.13;7.37;;;10.80;70.90;;;-142.21;100.00;112049.66;4990696;28;20541;-75
2021/12/17 07:43:13;;;;;;;7.53;6.70;;;10.80;70.10;;;-142.21;100.00;112049.66;4993663;28;20499;-77
2021/12/17 07:45:40;;;;;;;7.33;6.63;;;10.70;69.60;;;-142.21;100.00;112049.66;5008097;28;20497;-79
2021/12/17 07:48:08;;;;;;;7.00;6.30;;;10.70;69.70;;;-142.21;100.00;112049.66;5005748;28;20542;-75
2021/12/17 07:50:35;;;;;;;7.03;6.33;;;10.80;69.70;;;-142.21;100.00;112049.66;5003087;28;20456;-76
2021/12/17 07:53:03;;;;;;;7.83;7.03;;;10.80;69.50;;;-142.21;100.00;112049.66;5005837;28;20561;-76
2021/12/17 07:55:31;;;;;;;6.83;6.23;;;10.90;69.40;;;-142.21;100.00;112049.66;5009172;28;20454;-76
2021/12/17 07:57:58;;;;;;;6.80;6.10;;;10.70;68.90;;;-142.21;100.00;112049.66;5012004;28;20525;-75
2021/12/17 08:00:27;;;;;;;6.63;6.03;;;10.70;68.30;;;-142.21;100.00;112049.66;5013168;28;20481;-76
2021/12/17 08:02:54;;;;;;;8.23;7.37;;;10.70;69.00;;;-142.21;100.00;112049.66;5011093;28;20518;-76
2021/12/17 08:05:21;;;;;;;8.87;7.97;;;10.70;68.40;;;-142.21;100.00;112049.66;5008479;28;20450;-76
2021/12/17 08:07:48;;;;;;;6.73;6.10;;;10.80;68.40;;;-142.21;100.00;112049.66;4993791;28;20534;-76
2021/12/17 08:10:16;;;;;;;7.37;6.40;;;10.90;68.00;;;-142.21;100.00;112049.66;5012885;28;20489;-77
2021/12/17 08:12:43;;;;;;;7.37;6.57;;;10.90;67.80;;;-142.21;100.00;112049.66;5009720;28;20552;-76
2021/12/17 08:15:12;;;;;;;7.57;6.87;;;10.90;67.00;;;-142.21;100.00;112049.66;4993842;28;20481;-76
2021/12/17 08:18:10;;;;;;;7.60;6.80;;;10.80;67.20;;;-142.21;100.00;112049.66;4993694;28;20764;-75
2021/12/17 08:26:25;;;;;;;8.07;7.37;;;11.10;67.10;;;-142.21;100.00;112049.66;4997548;28;20428;-77
2021/12/17 08:29:06;;;;;;;8.00;7.20;;;11.20;67.10;;;-142.21;100.00;112049.66;4993239;28;20448;-76
2021/12/17 08:31:35;;;;;;;7.77;7.07;;;11.30;66.00;;;-142.21;100.00;112049.66;4993383;28;20466;-75
2021/12/17 08:34:05;;;;;;;9.47;8.00;;;11.50;65.10;;;-142.21;100.00;112049.66;4976373;28;20514;-76
2021/12/17 08:36:33;;;;;;;7.83;6.80;;;12.00;65.20;;;-142.21;100.00;112049.66;5011850;28;20454;-77
2021/12/17 08:39:00;;;;;;;7.73;6.97;;;12.70;64.00;;;-142.21;100.00;112049.66;5012724;28;20512;-77
2021/12/17 08:41:28;;;;;;;6.80;6.17;;;13.00;61.10;;;-142.21;99.73;112049.66;5012342;28;20581;-77
2021/12/17 08:43:56;;;;;;;6.70;6.10;;;13.10;61.00;;;-142.21;100.00;112049.66;5013317;28;20493;-76
2021/12/17 08:46:23;;;;;;;6.73;6.20;;;13.40;60.80;;;-142.21;100.00;112049.66;4995816;28;20455;-77
2021/12/17 08:48:50;;;;;;;7.47;6.80;;;13.50;60.90;;;-142.21;99.80;112049.66;4993151;28;20449;-76
2021/12/17 08:51:19;;;;;;;7.40;6.80;;;13.50;58.70;;;-142.21;100.00;112049.66;4992564;28;20561;-75
2021/12/17 08:53:47;;;;;;;7.50;6.80;;;13.40;59.40;;;-142.21;99.07;112049.66;4975451;28;20562;-76
2021/12/17 08:56:19;;;;;;;7.43;6.67;;;13.30;60.10;;;-142.21;93.57;112049.66;4993349;28;20455;-75
2021/12/17 08:58:47;;;;;;;7.17;6.47;;;13.30;60.10;;;-142.21;95.66;112049.66;4993452;28;20447;-76
2021/12/17 09:01:14;;;;;;;7.60;6.90;;;13.40;60.10;;;-142.21;94.10;112049.66;4994202;28;20546;-78
2021/12/17 09:03:41;;;;;;;7.03;6.33;;;13.90;59.10;;;-142.21;86.83;112049.66;5001901;28;21151;-76
2021/12/17 09:06:12;;;;;;;8.37;6.80;;;14.20;57.60;;;-142.21;92.16;112049.66;5003983;28;20457;-77
2021/12/17 09:08:42;;;;;;;6.93;6.23;;;13.80;58.60;;;-142.21;93.74;112049.66;5011767;28;20862;-75
2021/12/17 09:11:10;;;;;;;6.73;6.13;;;13.50;58.20;;;-142.21;94.21;112049.66;5012803;28;20510;-77
2021/12/17 09:13:37;;;;;;;7.53;6.57;;;13.80;59.30;;;-142.21;88.52;112049.66;5012192;28;20790;-79
2021/12/17 09:16:06;;;;;;;7.33;6.63;;;14.10;58.30;;;-142.21;87.84;112049.66;5012184;28;20501;-78
2021/12/17 09:18:34;;;;;;;7.30;6.63;;;14.20;57.60;;;-142.21;88.31;112049.66;4977050;28;20954;-79
2021/12/17 09:21:02;;;;;;;7.60;6.80;;;14.20;56.80;;;-142.21;89.12;112049.66;5012384;28;20545;-80
2021/12/17 09:23:29;;;;;;;7.30;6.60;;;14.00;57.40;;;-142.21;83.57;112049.66;4994723;28;20876;-79
2021/12/17 09:26:01;;;;;;;7.30;6.63;;;13.90;57.50;;;-142.21;79.32;112049.66;5011618;28;20524;-79
2021/12/17 09:28:31;;;;;;;7.27;6.57;;;14.00;56.80;;;-142.21;80.00;112049.66;5011964;28;20419;-78
2021/12/17 09:30:59;;;;;;;6.93;6.33;;;14.30;57.90;;;-142.21;75.80;112049.66;5011739;28;20851;-80
2021/12/17 09:33:26;;;;;;;6.37;5.77;;;14.60;56.00;;;-142.21;80.80;112049.66;4992618;28;20803;-80
2021/12/17 09:35:54;;;;;;;6.77;6.10;;;14.80;55.60;;;-142.21;78.47;112049.66;4992242;28;20443;-79
2021/12/17 09:38:21;;;;;;;6.60;6.00;;;15.10;55.50;;;-142.21;65.36;112049.66;4992328;28;20458;-79
2021/12/17 09:40:51;;;;;;;5.93;5.43;;;15.40;54.00;;;-142.21;70.48;112049.66;4999324;28;20458;-78
2021/12/17 09:43:20;;;;;;;5.83;5.40;;;15.60;53.20;;;-142.21;75.91;112049.66;5011654;28;20547;-79
2021/12/17 09:45:47;;;;;;;6.33;5.50;;;15.50;53.60;;;-142.21;64.23;112049.66;5011717;28;20792;-79
2021/12/17 09:48:15;;;;;;;5.90;5.40;;;15.90;53.10;;;-142.21;58.84;112049.66;5009628;28;20521;-78
2021/12/17 09:50:42;;;;;;;5.70;5.20;;;16.90;51.10;;;-142.21;64.32;112049.66;5005788;28;20542;-78
2021/12/17 09:53:10;;;;;;;5.70;5.13;;;17.70;51.20;;;-142.21;56.70;112049.66;4995570;28;21227;-77
2021/12/17 09:55:38;;;;;;;5.63;5.13;;;18.20;49.50;;;-142.21;52.86;112049.66;4996318;28;20886;-76
2021/12/17 09:58:06;;;;;;;6.27;5.67;;;18.40;49.20;;;-142.21;42.35;112049.66;4978440;28;20454;-78
2021/12/17 10:00:35;;;;;;;6.57;6.00;;;18.70;48.30;;;-142.21;42.06;112049.66;4996326;28;20449;-76
2021/12/17 10:03:02;;;;;;;6.30;5.77;;;19.10;47.50;;;-142.21;39.99;112049.66;4996653;28;20487;-77
2021/12/17 10:05:35;;;;;;;5.70;5.20;;;20.00;46.80;;;-142.21;38.64;112049.66;5015488;28;20211;-77
2021/12/17 10:08:06;;;;;;;5.40;5.00;;;20.80;45.40;;;-142.21;37.33;112049.66;5002476;28;20290;-79
2021/12/17 10:10:36;;;;;;;5.93;5.43;;;21.70;44.30;;;-142.21;33.98;112049.66;5000900;28;20709;-80
2021/12/17 10:13:09;;;;;;;5.20;4.70;;;21.90;42.00;;;-142.21;35.15;112049.66;5010590;28;20269;-78
2021/12/17 10:15:40;;;;;;;5.30;4.90;;;23.00;42.40;;;-142.21;31.67;112049.66;5000992;28;20644;-79
2021/12/17 10:18:08;;;;;;;6.10;5.60;;;24.00;40.60;;;-142.21;32.94;112049.66;5002815;28;20233;-78
2021/12/17 10:20:43;;;;;;;6.00;5.40;;;24.90;39.70;;;-142.21;30.41;112049.66;5014802;28;20630;-78
2021/12/17 10:23:12;;;;;;;5.70;5.20;;;25.60;38.00;;;-142.21;29.97;112049.66;4997131;28;20206;-78
2021/12/17 10:25:49;;;;;;;5.90;5.40;;;26.20;38.00;;;-142.21;29.36;112049.66;5015203;28;20204;-77
2021/12/17 10:28:17;;;;;;;5.93;5.43;;;27.20;35.50;;;-142.21;32.02;112049.66;4991848;28;20637;-79
2021/12/17 10:30:50;;;;;;;6.30;5.80;;;27.50;36.20;;;-142.21;29.23;112049.66;5006123;28;20649;-78
2021/12/17 10:33:23;;;;;;;5.87;5.47;;;27.80;34.80;;;-142.21;28.96;112049.66;5014545;28;20276;-77
2021/12/17 10:35:52;;;;;;;6.60;6.00;;;28.50;34.30;;;-142.21;29.12;112049.66;5014638;28;20202;-77
2021/12/17 10:38:23;;;;;;;6.43;5.93;;;28.60;33.20;;;-142.21;30.36;112049.66;5003565;28;20204;-76
2021/12/17 10:40:58;;;;;;;5.57;5.07;;;28.10;32.80;;;-142.21;31.89;112049.66;4995307;28;20614;-77
2021/12/17 10:43:32;;;;;;;5.40;4.90;;;27.90;33.90;;;-142.21;32.37;112049.66;4994416;28;20276;-76
2021/12/17 10:46:07;;;;;;;5.87;5.37;;;28.10;34.20;;;-142.21;33.38;112049.66;5006063;28;20210;-75
2021/12/17 10:48:49;;;;;;;5.80;5.30;;;28.10;32.90;;;-142.21;31.41;112049.66;4994940;28;20199;-77
2021/12/17 10:51:43;;;;;;;5.40;5.00;;;27.90;32.80;;;-142.21;30.98;112049.66;4994638;28;20680;-77
2021/12/17 10:54:13;;;;;;;6.23;5.73;;;26.80;31.40;;;-142.21;29.65;112049.66;5012817;28;20206;-78
2021/12/17 10:56:44;;;;;;;5.43;4.90;;;25.60;34.10;;;-142.21;33.89;112049.66;4956133;28;20284;-77
2021/12/17 10:59:15;;;;;;;6.20;5.70;;;25.80;35.60;;;-142.21;34.86;112049.66;5004462;28;20220;-75
2021/12/17 11:01:49;;;;;;;5.33;4.93;;;25.70;35.70;;;-142.21;33.29;112049.66;4994458;28;20197;-77
2021/12/17 11:04:22;;;;;;;5.07;4.70;;;25.40;34.80;;;-142.21;36.59;112049.66;5008443;28;20262;-76
2021/12/17 11:06:56;;;;;;;6.23;5.40;;;24.60;35.80;;;-142.21;33.84;112049.66;5013754;28;20199;-76
2021/12/17 11:09:49;;;;;;;6.23;5.73;;;24.20;36.60;;;-142.21;34.79;112049.66;5014246;28;20213;-77
2021/12/17 11:12:33;;;;;;;5.10;4.70;;;24.40;36.30;;;-142.21;33.22;112049.66;4994630;28;20203;-76
2021/12/17 11:15:21;;;;;;;5.53;5.13;;;23.80;35.40;;;-142.21;35.13;112049.66;5013396;28;20282;-77
2021/12/17 11:17:53;;;;;;;5.07;4.67;;;23.10;37.00;;;-142.21;36.11;112049.66;5013511;28;20298;-76
2021/12/17 11:20:25;;;;;;;6.07;5.50;;;22.40;38.30;;;-142.21;37.72;112049.66;5011915;28;20198;-77
2021/12/17 11:22:55;;;;;;;5.80;5.33;;;22.40;38.90;;;-142.21;37.08;112049.66;5000271;28;20226;-77
2021/12/17 11:25:25;;;;;;;6.17;5.67;;;22.10;39.00;;;-142.21;36.97;112049.66;5013425;28;20222;-75
2021/12/17 11:27:53;;;;;;;5.10;4.70;;;22.00;39.10;;;-142.21;38.68;112049.66;5011479;28;20295;-77
2021/12/17 11:30:25;;;;;;;5.47;5.07;;;21.70;39.40;;;-142.21;37.01;112049.66;4959866;28;20293;-79
2021/12/17 11:32:56;;;;;;;6.17;5.67;;;21.00;38.80;;;-142.21;42.13;112049.66;5012072;28;20607;-78
2021/12/17 11:35:32;;;;;;;6.87;6.27;;;20.30;40.70;;;-142.21;48.41;112049.66;5009386;28;20284;-77
2021/12/17 11:38:05;;;;;;;6.20;5.70;;;19.90;41.60;;;-142.21;53.31;112049.66;5006407;28;20230;-75
2021/12/17 11:40:43;;;;;;;7.20;6.60;;;19.30;42.30;;;-142.21;59.17;112049.66;5010410;28;20223;-76
2021/12/17 11:43:48;;;;;;;6.80;6.20;;;19.10;43.50;;;-142.21;57.24;112049.66;5004372;28;20235;-76
2021/12/17 11:46:18;;;;;;;8.13;7.43;;;19.00;43.60;;;-142.21;57.58;112049.66;5010049;28;20199;-74
2021/12/17 11:48:57;;;;;;;7.10;6.50;;;19.10;44.00;;;-142.21;61.78;112049.66;5012557;28;20278;-75
2021/12/17 11:51:29;;;;;;;7.50;6.90;;;18.70;43.80;;;-142.21;67.79;112049.66;4976520;28;20671;-76
2021/12/17 11:54:06;;;;;;;7.07;6.47;;;18.50;44.80;;;-142.21;68.14;112049.66;4987788;28;20571;-73
2021/12/17 11:56:45;;;;;;;6.77;6.17;;;18.40;45.10;;;-142.21;67.29;112049.66;5008200;28;20203;-76
2021/12/17 11:59:48;;;;;;;6.17;5.67;;;18.10;45.10;;;-142.21;72.19;112049.66;5006385;28;20443;-76
2021/12/17 12:02:19;;;;;;;6.97;6.27;;;17.60;46.10;;;-142.21;70.44;112049.66;5001610;28;20449;-75
2021/12/17 12:04:56;;;;;;;6.40;5.80;;;17.20;46.40;;;-142.21;75.28;112049.66;4964550;28;20540;-76
2021/12/17 12:07:37;;;;;;;6.70;6.17;;;17.00;47.40;;;-142.21;75.89;112049.66;4994193;28;20772;-75
2021/12/17 12:10:24;;;;;;;6.93;6.33;;;16.90;47.70;;;-142.21;75.96;112049.66;5011217;28;20470;-76
2021/12/17 12:13:01;;;;;;;6.63;6.03;;;16.80;47.90;;;-142.21;77.98;112049.66;4999223;28;20996;-78
2021/12/17 12:15:40;;;;;;;6.50;6.00;;;16.50;47.80;;;-142.21;79.43;112049.66;5000922;28;20438;-75
2021/12/17 12:18:16;;;;;;;6.93;6.23;;;16.30;48.30;;;-142.21;78.37;112049.66;5012460;28;20507;-76
2021/12/17 12:21:02;;;;;;;7.00;6.37;;;16.20;49.10;;;-142.21;80.06;112049.66;4996567;28;20442;-76
2021/12/17 12:23:51;;;;;;;6.13;5.63;;;16.00;49.10;;;-142.21;82.45;112049.66;5008743;28;20484;-76
2021/12/17 12:26:34;;;;;;;7.10;6.50;;;16.00;49.60;;;-142.21;80.34;112049.66;5009218;28;20438;-75
2021/12/17 12:29:06;;;;;;;6.93;6.33;;;15.70;49.50;;;-142.21;80.75;112049.66;5006307;28;20445;-75
2021/12/17 12:32:00;;;;;;;6.63;6.03;;;15.10;50.10;;;-142.21;82.29;112049.66;5002072;28;20473;-77